Time;durP1;ratioP1;P1;durP2;ratioP2;P2;SDS_P1;SDS_P2;PMS_P1;PMS_P2;Temp;Humidity;BMP_temperature;BMP_pressure;BME280_temperature;BME280_humidity;BME280_pressure;Samples;Min_cycle;Max_cycle;Signal;HPM_P1;HPM_P2
2022/05/28 00:00:34;;;;;;;4.22;0.70;;;;;;;9.89;57.64;101181.78;4999057;28;20604;-48
2022/05/28 00:03:01;;;;;;;4.75;0.57;;;;;;;9.86;57.49;101168.81;5001853;28;20470;-49
2022/05/28 00:05:28;;;;;;;3.60;0.90;;;;;;;9.81;57.76;101166.13;5000105;28;20069;-45
2022/05/28 00:07:55;;;;;;;2.72;0.50;;;;;;;9.79;57.70;101166.97;5002945;28;20045;-43
2022/05/28 00:10:21;;;;;;;4.35;0.60;;;;;;;9.76;58.10;101163.47;4996571;28;20446;-48
2022/05/28 00:12:48;;;;;;;3.13;0.40;;;;;;;9.75;57.93;101166.91;4998469;28;20076;-48
2022/05/28 00:15:15;;;;;;;3.45;0.40;;;;;;;9.74;57.79;101161.69;5003085;28;20054;-42
2022/05/28 00:17:42;;;;;;;3.22;0.65;;;;;;;9.72;57.98;101163.38;5000762;28;21025;-46
2022/05/28 00:20:11;;;;;;;5.60;0.68;;;;;;;9.69;58.31;101155.56;5005896;28;20064;-46
2022/05/28 00:22:43;;;;;;;4.82;0.80;;;;;;;9.68;58.31;101165.03;5003294;28;20056;-45
2022/05/28 00:25:14;;;;;;;7.63;0.95;;;;;;;9.66;57.27;101168.44;5001846;28;20042;-49
2022/05/28 00:27:43;;;;;;;4.50;0.60;;;;;;;9.62;58.15;101170.97;4999024;28;20045;-47
2022/05/28 00:30:15;;;;;;;3.53;0.60;;;;;;;9.62;57.66;101172.66;5000100;28;20081;-46
2022/05/28 00:32:44;;;;;;;5.65;0.45;;;;;;;9.58;58.24;101169.16;5001956;28;20046;-48
2022/05/28 00:35:16;;;;;;;2.97;0.50;;;;;;;9.58;58.15;101160.50;5000381;28;20571;-44
2022/05/28 00:37:45;;;;;;;4.22;0.73;;;;;;;9.53;58.14;101170.78;5001372;28;20053;-47
2022/05/28 00:40:18;;;;;;;5.90;0.43;;;;;;;9.52;58.43;101179.38;5003562;28;20108;-52
2022/05/28 00:42:44;;;;;;;2.58;0.50;;;;;;;9.50;58.11;101171.59;4999816;28;20123;-47
2022/05/28 00:45:11;;;;;;;4.65;0.60;;;;;;;9.50;58.51;101176.75;5003580;28;20053;-44
2022/05/28 00:47:47;;;;;;;4.13;0.85;;;;;;;9.46;58.62;101164.59;5000480;28;20080;-48
2022/05/28 00:50:14;;;;;;;4.85;0.57;;;;;;;9.45;58.75;101157.69;4999496;28;20046;-48
2022/05/28 00:52:41;;;;;;;3.50;0.55;;;;;;;9.44;57.75;101149.91;5002035;28;20049;-47
2022/05/28 00:55:09;;;;;;;6.55;0.90;;;;;;;9.41;58.60;101153.31;5000928;28;20096;-48
2022/05/28 00:57:38;;;;;;;3.65;0.50;;;;;;;9.39;58.55;101154.97;4999767;28;20053;-49
2022/05/28 01:00:08;;;;;;;4.80;0.52;;;;;;;9.39;58.26;101167.91;5000756;28;20506;-47
2022/05/28 01:05:51;;;;;;;1.88;1.10;;;;;;;9.33;58.61;101158.34;5023963;27;20405;-43
2022/05/28 01:08:26;;;;;;;3.05;0.50;;;;;;;9.37;58.03;101149.81;5021062;28;20041;-48
2022/05/28 01:13:54;;;;;;;3.75;0.63;;;;;;;9.33;59.21;101154.88;5016117;27;20408;-51
2022/05/28 01:16:31;;;;;;;2.00;0.35;;;;;;;9.34;58.42;101160.09;4997365;28;20112;-53
2022/05/28 01:19:11;;;;;;;2.50;0.50;;;;;;;9.35;59.18;101160.94;4997269;28;20540;-44
2022/05/28 01:24:28;;;;;;;4.85;0.50;;;;;;;9.29;59.06;101166.84;5052121;27;20411;-52
2022/05/28 01:26:58;;;;;;;4.60;0.80;;;;;;;9.31;58.40;101159.13;5008664;28;20041;-49
2022/05/28 01:29:29;;;;;;;4.07;0.45;;;;;;;9.32;58.64;101166.06;5003600;28;20050;-46
2022/05/28 01:31:57;;;;;;;4.25;0.57;;;;;;;9.31;58.74;101159.13;5013074;28;20100;-45
2022/05/28 01:34:25;;;;;;;2.30;1.00;;;;;;;9.29;59.29;101163.41;5003418;28;20125;-48
2022/05/28 01:36:55;;;;;;;3.33;0.82;;;;;;;9.29;58.47;101163.41;5010826;28;20050;-47
2022/05/28 01:39:22;;;;;;;;;;;;;;;9.15;60.24;101158.81;5007474;28;20057;-47
2022/05/28 01:41:49;;;;;;;6.50;0.75;;;;;;;9.22;59.25;101159.84;5009511;28;19926;-49
2022/05/28 01:44:17;;;;;;;6.15;0.63;;;;;;;9.25;58.96;101155.59;5003652;28;20054;-51
2022/05/28 01:46:46;;;;;;;4.35;0.75;;;;;;;9.23;59.08;101152.09;5043991;28;20046;-49
2022/05/28 01:49:17;;;;;;;7.32;0.82;;;;;;;9.24;58.88;101153.84;4998196;28;20054;-51
2022/05/28 01:51:51;;;;;;;6.90;0.98;;;;;;;9.21;58.60;101148.63;5003135;28;20042;-52
2022/05/28 01:54:20;;;;;;;4.95;0.65;;;;;;;9.22;58.70;101160.69;5007653;28;20077;-45
2022/05/28 01:56:50;;;;;;;8.00;0.90;;;;;;;9.21;58.85;101153.78;5012819;28;20041;-49
2022/05/28 01:59:23;;;;;;;5.32;0.80;;;;;;;9.20;58.71;101146.88;5003241;28;20109;-48
2022/05/28 02:01:51;;;;;;;4.20;0.73;;;;;;;9.20;59.23;101154.63;5001370;28;20054;-45
2022/05/28 02:04:18;;;;;;;4.03;0.90;;;;;;;9.19;59.73;101147.69;5020701;28;20073;-47
2022/05/28 02:06:46;;;;;;;4.03;0.68;;;;;;;9.18;58.75;101148.53;4999778;28;20070;-46
2022/05/28 02:09:16;;;;;;;13.27;2.08;;;;;;;9.18;59.56;101153.72;5003387;28;20379;-48
2022/05/28 02:22:34;;;;;;;5.15;1.95;;;;;;;9.11;60.19;101159.59;5037409;28;20386;-47
2022/05/28 02:25:08;;;;;;;10.32;1.88;;;;;;;9.11;59.56;101162.16;5006390;28;20072;-48
2022/05/28 02:27:39;;;;;;;5.70;2.05;;;;;;;9.10;59.71;101165.59;5003596;28;20084;-49
2022/05/28 02:30:06;;;;;;;4.35;1.58;;;;;;;9.08;59.83;101162.09;5007592;28;20474;-44
2022/05/28 02:32:33;;;;;;;6.60;1.73;;;;;;;9.06;60.06;101149.19;5008297;28;20527;-45
2022/05/28 02:34:59;;;;;;;6.70;1.73;;;;;;;9.05;59.99;101150.00;5018150;28;20092;-48
2022/05/28 02:37:27;;;;;;;3.90;0.47;;;;;;;9.05;58.89;101149.13;5001274;28;22683;-47
2022/05/28 02:39:54;;;;;;;8.25;2.17;;;;;;;9.03;60.17;101153.38;4999916;28;20054;-47
2022/05/28 02:42:21;;;;;;;5.45;1.73;;;;;;;9.02;59.86;101157.66;5007094;28;20038;-48
2022/05/28 02:44:48;;;;;;;6.55;1.73;;;;;;;9.02;59.35;101151.66;5011174;28;20049;-49
2022/05/28 02:47:15;;;;;;;5.38;2.10;;;;;;;9.01;59.63;101155.94;5010242;28;20050;-48
2022/05/28 02:49:42;;;;;;;7.00;1.52;;;;;;;8.99;60.30;101157.63;5011713;28;20127;-47
2022/05/28 02:52:09;;;;;;;5.85;2.00;;;;;;;8.99;60.63;101155.91;5011047;28;20056;-47
2022/05/28 02:54:35;;;;;;;3.67;1.95;;;;;;;8.95;60.54;101151.50;5004548;28;20080;-49
2022/05/28 02:57:04;;;;;;;5.70;1.95;;;;;;;8.93;59.99;101155.78;5008638;28;20045;-47
2022/05/28 02:59:31;;;;;;;5.40;1.83;;;;;;;8.92;59.66;101153.16;5005430;28;20038;-45
2022/05/28 03:01:58;;;;;;;2.80;1.42;;;;;;;8.88;60.06;101147.03;4997297;28;20120;-47
2022/05/28 03:04:25;;;;;;;4.10;1.70;;;;;;;8.85;60.12;101150.44;5008474;28;20050;-46
2022/05/28 03:06:52;;;;;;;5.68;0.75;;;;;;;8.83;60.39;101152.13;5009363;28;20445;-44
2022/05/28 03:09:19;;;;;;;5.25;1.58;;;;;;;8.80;60.90;101156.34;5010038;28;20054;-44
2022/05/28 03:11:45;;;;;;;6.03;1.83;;;;;;;8.79;59.91;101149.44;5008162;28;20068;-45
2022/05/28 03:14:12;;;;;;;2.70;2.03;;;;;;;8.78;60.83;101142.53;5015778;28;20107;-46
2022/05/28 03:16:39;;;;;;;7.55;2.08;;;;;;;8.76;61.04;101145.06;5004277;28;20050;-46
2022/05/28 03:19:06;;;;;;;4.93;2.00;;;;;;;8.73;61.45;101145.88;5000584;28;20056;-49
2022/05/28 03:21:33;;;;;;;7.32;2.05;;;;;;;8.69;60.50;101149.25;5010007;28;20053;-53
2022/05/28 03:24:00;;;;;;;6.85;2.17;;;;;;;8.67;60.62;101144.84;5006585;28;20050;-45
2022/05/28 03:26:29;;;;;;;5.53;1.80;;;;;;;8.65;61.68;101147.38;5006300;28;20161;-45
2022/05/28 03:28:57;;;;;;;5.75;1.95;;;;;;;8.64;61.87;101149.97;5002100;28;20065;-47
2022/05/28 03:31:25;;;;;;;6.10;0.90;;;;;;;8.62;60.85;101152.50;5003376;28;20542;-45
2022/05/28 03:33:52;;;;;;;3.28;2.17;;;;;;;8.59;61.87;101152.44;4989775;28;20070;-49
2022/05/28 03:36:20;;;;;;;6.38;1.60;;;;;;;8.57;61.16;101151.50;4993478;28;20058;-47
2022/05/28 03:38:47;;;;;;;5.65;1.63;;;;;;;8.56;60.95;101149.78;4995393;28;20058;-48
2022/05/28 03:41:14;;;;;;;7.38;2.05;;;;;;;8.54;61.61;101143.72;4988913;28;20104;-48
2022/05/28 03:43:40;;;;;;;6.97;1.70;;;;;;;8.51;62.34;101143.59;4989661;28;20058;-45
2022/05/28 03:46:20;;;;;;;9.27;2.10;;;;;;;8.46;61.47;101151.25;4988989;28;20061;-44
2022/05/28 03:48:47;;;;;;;7.22;1.88;;;;;;;8.46;60.96;101157.28;4989028;28;20050;-50
2022/05/28 03:51:13;;;;;;;5.68;2.05;;;;;;;8.42;61.34;101152.88;4994809;28;20093;-48
2022/05/28 03:53:40;;;;;;;4.93;2.50;;;;;;;8.42;62.56;101152.88;4997810;28;20128;-48
2022/05/28 03:56:07;;;;;;;7.75;0.68;;;;;;;8.40;61.81;101151.06;4994171;28;20462;-48
2022/05/28 03:58:34;;;;;;;7.10;0.88;;;;;;;8.36;62.64;101140.69;4984149;28;20431;-45
2022/05/28 04:01:00;;;;;;;3.35;2.13;;;;;;;8.35;62.72;101149.25;4991909;28;20046;-45
2022/05/28 04:03:28;;;;;;;10.88;2.47;;;;;;;8.32;61.71;101150.91;5000473;28;20073;-48
2022/05/28 04:05:56;;;;;;;5.82;1.63;;;;;;;8.29;62.80;101148.25;5002293;28;20054;-45
2022/05/28 04:08:22;;;;;;;6.10;2.28;;;;;;;8.26;62.44;101143.88;4989155;28;20165;-48
2022/05/28 04:10:49;;;;;;;5.05;1.88;;;;;;;8.25;62.63;101151.59;4992398;28;20100;-45
2022/05/28 04:13:16;;;;;;;4.55;0.80;;;;;;;8.21;62.62;101153.22;4978594;28;20438;-45
2022/05/28 04:15:42;;;;;;;3.50;2.25;;;;;;;8.19;62.01;101158.34;4972533;28;20050;-44
2022/05/28 04:18:09;;;;;;;3.83;1.83;;;;;;;8.16;62.11;101158.28;4988128;28;20065;-46
2022/05/28 04:20:36;;;;;;;4.57;2.00;;;;;;;8.16;63.08;101158.28;4994417;28;20050;-46
2022/05/28 04:23:02;;;;;;;7.25;2.40;;;;;;;8.13;62.62;101158.19;4998395;28;20058;-46
2022/05/28 04:25:29;;;;;;;9.57;2.45;;;;;;;8.10;63.52;101159.00;4994036;28;20068;-45
2022/05/28 04:27:56;;;;;;;6.07;1.85;;;;;;;8.10;63.09;101158.09;4993813;28;20050;-46
2022/05/28 04:30:22;;;;;;;8.07;1.98;;;;;;;8.10;62.18;101158.09;4993936;28;20042;-47
2022/05/28 04:32:49;;;;;;;7.22;1.75;;;;;;;8.09;63.66;101157.25;4992507;28;20042;-44
2022/05/28 04:35:16;;;;;;;5.50;1.60;;;;;;;8.08;63.91;101162.38;4988156;28;20049;-48
2022/05/28 04:37:42;;;;;;;6.93;2.58;;;;;;;8.08;63.11;101164.94;4996763;28;20100;-48
2022/05/28 04:40:10;;;;;;;5.40;2.45;;;;;;;8.08;63.03;101162.38;4992475;28;20059;-47
2022/05/28 04:42:37;;;;;;;3.97;2.25;;;;;;;8.08;63.10;101164.94;4991557;28;20050;-45
2022/05/28 04:45:04;;;;;;;8.13;1.88;;;;;;;8.10;63.27;101160.69;4991751;28;20050;-46
2022/05/28 04:47:31;;;;;;;6.40;2.05;;;;;;;8.11;64.31;101159.88;4995373;28;20065;-44
2022/05/28 04:49:57;;;;;;;6.30;2.47;;;;;;;8.13;64.16;101163.34;4990658;28;20514;-45
2022/05/28 04:52:24;;;;;;;5.40;2.08;;;;;;;8.16;64.21;101160.84;4994444;28;20045;-45
2022/05/28 04:54:51;;;;;;;7.70;2.47;;;;;;;8.20;63.86;101165.25;4987663;28;20057;-45
2022/05/28 04:57:17;;;;;;;8.02;2.65;;;;;;;8.26;63.72;101163.66;4984853;28;20085;-45
2022/05/28 04:59:44;;;;;;;7.45;2.10;;;;;;;8.33;64.52;101163.84;4989605;28;20050;-47
2022/05/28 05:02:10;;;;;;;8.30;2.55;;;;;;;8.42;63.69;101155.47;4984388;28;20053;-51
2022/05/28 05:04:38;;;;;;;6.28;2.60;;;;;;;8.49;64.96;101157.34;4990235;28;20047;-45
2022/05/28 05:07:04;;;;;;;5.38;1.92;;;;;;;8.63;63.72;101158.53;4992689;28;20094;-45
2022/05/28 05:09:31;;;;;;;6.05;2.20;;;;;;;8.72;64.64;101169.09;4995083;28;20111;-44
2022/05/28 05:11:58;;;;;;;6.50;2.20;;;;;;;8.84;64.69;101168.47;4995497;28;20406;-49
2022/05/28 05:14:25;;;;;;;9.63;3.15;;;;;;;8.95;64.31;101168.75;4989454;28;20048;-47
2022/05/28 05:16:52;;;;;;;8.93;2.08;;;;;;;9.02;63.95;101160.25;4992464;28;20545;-45
2022/05/28 05:19:19;;;;;;;9.85;2.10;;;;;;;9.12;64.34;101154.44;4993230;28;20046;-45
2022/05/28 05:21:45;;;;;;;5.82;2.35;;;;;;;9.25;64.23;101154.69;4994271;28;20096;-47
2022/05/28 05:24:12;;;;;;;5.95;2.10;;;;;;;9.33;63.78;101158.34;4995275;28;20049;-47
2022/05/28 05:26:38;;;;;;;4.93;2.08;;;;;;;9.41;63.43;101157.59;4986322;28;20050;-44
2022/05/28 05:29:05;;;;;;;5.93;2.10;;;;;;;9.52;63.42;101161.28;4981335;28;20049;-47
2022/05/28 05:31:32;;;;;;;5.30;2.10;;;;;;;9.60;63.76;101164.03;5001035;28;20124;-47
2022/05/28 05:33:58;;;;;;;7.00;1.75;;;;;;;9.69;63.16;101171.94;4981425;28;20097;-49
2022/05/28 05:36:25;;;;;;;4.22;1.80;;;;;;;9.79;63.27;101161.78;4993859;28;20050;-46
2022/05/28 05:38:51;;;;;;;7.35;2.33;;;;;;;9.88;63.24;101160.25;4990068;28;20092;-47
2022/05/28 05:41:18;;;;;;;7.47;2.22;;;;;;;9.99;63.29;101165.59;4979589;28;20051;-49
2022/05/28 05:43:44;;;;;;;5.80;2.15;;;;;;;10.11;62.91;101164.06;4994585;28;20050;-48
2022/05/28 05:46:13;;;;;;;4.13;2.35;;;;;;;10.19;62.73;101167.66;4996423;28;20092;-45
2022/05/28 05:48:41;;;;;;;8.45;2.22;;;;;;;10.33;62.54;101174.78;4989525;28;20092;-44
2022/05/28 05:51:11;;;;;;;6.57;2.40;;;;;;;10.40;62.68;101181.78;4992795;28;20050;-46
2022/05/28 05:53:38;;;;;;;7.75;1.95;;;;;;;10.50;62.13;101178.53;4987108;28;20128;-44
2022/05/28 05:56:05;;;;;;;5.07;2.08;;;;;;;10.64;62.06;101175.31;4991402;28;20104;-47
2022/05/28 05:58:34;;;;;;;5.70;1.15;;;;;;;10.75;61.83;101173.75;4991936;28;20489;-45
2022/05/28 06:01:03;;;;;;;7.25;1.55;;;;;;;10.89;61.87;101175.66;4985856;28;20442;-46
2022/05/28 06:03:30;;;;;;;6.50;2.45;;;;;;;11.04;61.43;101175.88;4993056;28;20046;-44
2022/05/28 06:05:59;;;;;;;4.10;1.83;;;;;;;11.14;61.58;101181.16;4993622;28;20471;-45
2022/05/28 06:08:26;;;;;;;3.53;2.20;;;;;;;11.26;61.38;101186.53;4990043;28;20054;-46
2022/05/28 06:10:53;;;;;;;4.53;1.92;;;;;;;11.41;60.42;101184.97;4992424;28;20050;-45
2022/05/28 06:13:20;;;;;;;6.95;1.75;;;;;;;11.56;60.42;101179.94;4988955;28;20042;-46
2022/05/28 06:15:46;;;;;;;7.20;2.00;;;;;;;11.74;60.43;101181.03;4985642;28;20100;-44
2022/05/28 06:18:14;;;;;;;4.05;2.22;;;;;;;11.94;59.63;101180.34;4991841;28;20050;-47
2022/05/28 06:20:41;;;;;;;4.90;2.10;;;;;;;12.14;59.67;101187.50;4990366;28;20059;-49
2022/05/28 06:23:08;;;;;;;3.95;1.70;;;;;;;12.37;59.93;101184.22;4989816;28;20050;-42
2022/05/28 06:25:36;;;;;;;6.38;3.58;;;;;;;12.56;59.53;101180.91;4994629;28;20050;-44
2022/05/28 06:28:03;;;;;;;2.85;1.63;;;;;;;12.71;58.21;101176.69;5000277;28;20053;-43
2022/05/28 06:30:30;;;;;;;5.05;1.55;;;;;;;12.85;58.98;101171.56;4991844;28;20056;-46
2022/05/28 06:32:56;;;;;;;5.35;1.77;;;;;;;13.02;58.21;101173.38;4987511;28;20375;-46
2022/05/28 06:35:23;;;;;;;4.13;1.50;;;;;;;13.20;58.31;101170.00;4992987;28;20058;-44
2022/05/28 06:37:50;;;;;;;8.45;2.78;;;;;;;13.42;57.08;101185.69;4986350;28;20056;-48
2022/05/28 06:40:16;;;;;;;2.42;1.67;;;;;;;13.66;57.31;101178.88;4986514;28;20817;-45
2022/05/28 06:42:45;;;;;;;4.82;1.88;;;;;;;13.92;56.78;101178.06;4990639;28;20062;-47
2022/05/28 06:45:14;;;;;;;3.33;1.63;;;;;;;14.14;55.99;101177.22;4993274;28;20495;-48
2022/05/28 06:47:42;;;;;;;5.47;1.80;;;;;;;14.36;54.86;101185.00;4995310;28;20104;-50
2022/05/28 06:52:57;;;;;;;5.43;1.90;;;;;;;14.77;52.74;101187.63;4993036;28;20109;-47
2022/05/28 06:55:23;;;;;;;2.78;2.15;;;;;;;14.86;53.22;101190.22;4991076;28;20050;-50
2022/05/28 06:57:50;;;;;;;3.55;1.83;;;;;;;14.97;52.84;101186.72;4988293;28;20549;-54
2022/05/28 07:00:17;;;;;;;6.60;1.98;;;;;;;15.13;51.83;101191.00;4992950;28;20057;-47
2022/05/28 07:02:44;;;;;;;4.22;0.90;;;;;;;15.30;52.22;101195.28;4992922;28;20351;-50
2022/05/28 07:05:12;;;;;;;3.08;1.55;;;;;;;15.47;51.24;101181.31;4998295;28;20054;-48
2022/05/28 07:07:39;;;;;;;5.95;3.20;;;;;;;15.58;51.13;101192.56;4997867;28;20046;-48
2022/05/28 07:10:06;;;;;;;5.47;2.25;;;;;;;15.72;50.39;101186.38;4997478;28;20042;-50
2022/05/28 07:12:33;;;;;;;2.03;1.48;;;;;;;15.79;49.64;101182.88;4990538;28;20050;-48
2022/05/28 07:15:00;;;;;;;2.88;1.70;;;;;;;15.89;49.35;101184.56;4989975;28;20046;-45
2022/05/28 07:17:26;;;;;;;4.68;1.88;;;;;;;16.08;49.23;101194.91;4989360;28;20046;-47
2022/05/28 07:19:53;;;;;;;3.13;2.15;;;;;;;16.27;49.05;101193.00;4989366;28;20050;-47
2022/05/28 07:22:20;;;;;;;2.88;1.33;;;;;;;16.53;48.86;101201.50;4990953;28;20046;-46
2022/05/28 07:24:47;;;;;;;3.90;1.10;;;;;;;16.66;47.82;101203.13;4992789;28;20104;-47
2022/05/28 07:27:14;;;;;;;2.75;1.92;;;;;;;16.75;46.94;101201.31;4997148;28;20057;-48
2022/05/28 07:29:40;;;;;;;4.97;1.77;;;;;;;16.88;47.68;101192.44;4992036;28;20116;-45
2022/05/28 07:32:07;;;;;;;3.30;2.47;;;;;;;17.03;47.04;101196.66;4995226;28;20046;-46
2022/05/28 07:34:34;;;;;;;4.35;1.90;;;;;;;17.18;46.90;101205.22;4990822;28;20050;-46
2022/05/28 07:37:01;;;;;;;3.78;1.77;;;;;;;17.44;47.49;101202.31;4991996;28;20396;-49
2022/05/28 07:39:27;;;;;;;3.22;1.90;;;;;;;17.69;46.15;101196.72;4988107;28;20138;-50
2022/05/28 07:41:54;;;;;;;5.65;1.30;;;;;;;17.86;46.22;101193.84;4993705;28;20042;-46
2022/05/28 07:44:21;;;;;;;2.90;2.03;;;;;;;17.87;45.31;101189.50;4996970;28;20049;-49
2022/05/28 07:46:47;;;;;;;3.70;1.90;;;;;;;17.93;45.08;101194.63;4991663;28;20089;-47
2022/05/28 07:49:14;;;;;;;3.50;1.85;;;;;;;18.12;44.90;101189.13;5003499;28;20053;-50
2022/05/28 07:51:45;;;;;;;2.50;1.88;;;;;;;18.35;45.29;101196.63;4989822;28;20058;-51
2022/05/28 07:54:13;;;;;;;3.25;1.90;;;;;;;18.63;44.66;101196.13;4993421;28;20477;-46
2022/05/28 07:56:39;;;;;;;4.20;1.85;;;;;;;18.92;44.68;101188.63;4994716;28;20050;-51
2022/05/28 07:59:06;;;;;;;1.58;1.40;;;;;;;19.17;43.28;101205.66;4996706;28;20560;-49
2022/05/28 08:01:35;;;;;;;4.45;2.15;;;;;;;19.38;43.32;101212.22;4996252;28;20053;-48
2022/05/28 08:04:07;;;;;;;3.60;1.90;;;;;;;19.60;42.54;101215.28;4991879;28;20088;-50
2022/05/28 08:06:33;;;;;;;2.15;1.52;;;;;;;19.65;41.51;101212.53;4986984;28;20102;-51
2022/05/28 08:09:01;;;;;;;3.15;1.65;;;;;;;19.73;41.95;101209.72;4987125;28;20058;-48
2022/05/28 08:11:30;;;;;;;4.57;1.38;;;;;;;19.68;41.61;101211.59;4990187;28;20529;-51
2022/05/28 08:13:57;;;;;;;4.60;2.35;;;;;;;19.57;41.98;101214.44;5001381;28;20042;-50
2022/05/28 08:16:31;;;;;;;4.30;1.55;;;;;;;19.59;42.09;101213.53;4988973;28;20051;-51
2022/05/28 08:18:58;;;;;;;3.05;2.00;;;;;;;19.66;41.93;101216.91;4994393;28;20042;-50
2022/05/28 08:24:11;;;;;;;3.50;1.95;;;;;;;19.43;41.95;101210.38;4980205;28;20058;-50
2022/05/28 08:26:38;;;;;;;3.38;1.70;;;;;;;19.28;41.68;101214.16;4991428;28;20105;-46
2022/05/28 08:29:05;;;;;;;4.18;2.03;;;;;;;18.98;41.57;101201.59;4988263;28;20050;-49
2022/05/28 08:31:32;;;;;;;2.88;1.55;;;;;;;19.02;42.03;101203.25;4991016;28;20050;-48
2022/05/28 08:33:59;;;;;;;3.67;0.85;;;;;;;19.26;42.32;101211.56;4992162;28;21692;-50
2022/05/28 08:36:25;;;;;;;2.40;1.50;;;;;;;19.65;42.35;101208.13;4990795;28;20182;-52
2022/05/28 08:38:52;;;;;;;3.75;1.95;;;;;;;19.96;41.69;101205.72;4988684;28;20042;-49
2022/05/28 08:41:25;;;;;;;3.28;2.38;;;;;;;20.07;40.55;101194.97;4989547;28;20107;-51
2022/05/28 08:44:14;;;;;;;1.92;1.38;;;;;;;20.17;41.38;101194.69;4989866;28;20119;-46
2022/05/28 08:46:41;;;;;;;;;;;;;;;20.52;41.19;101199.97;5000632;28;20418;-47
2022/05/28 08:49:10;;;;;;;3.42;0.52;;;;;;;20.79;40.35;101192.25;4996822;28;20548;-46
2022/05/28 08:52:04;;;;;;;3.00;1.85;;;;;;;20.97;39.42;101195.28;4983382;28;20041;-49
2022/05/28 08:54:38;;;;;;;1.95;1.25;;;;;;;21.20;39.36;101196.41;4986540;28;20101;-50
2022/05/28 08:57:17;;;;;;;2.28;1.42;;;;;;;21.37;38.28;101197.66;5001065;28;20053;-49
2022/05/28 08:59:50;;;;;;;3.40;1.23;;;;;;;21.47;39.13;101188.59;5000912;28;20054;-50
2022/05/28 09:02:22;;;;;;;3.25;2.22;;;;;;;21.68;38.89;101196.72;4979966;28;20396;-51
2022/05/28 09:04:50;;;;;;;3.85;2.25;;;;;;;21.89;38.44;101199.66;4984884;28;20050;-51
2022/05/28 09:07:17;;;;;;;2.22;2.05;;;;;;;22.03;38.33;101193.94;4996051;28;20390;-53
2022/05/28 09:09:47;;;;;;;2.20;0.50;;;;;;;21.94;38.06;101197.72;4984941;28;20364;-51
2022/05/28 09:12:27;;;;;;;1.80;1.20;;;;;;;22.03;37.96;101197.44;4988618;28;20746;-49
2022/05/28 09:14:54;;;;;;;3.10;1.52;;;;;;;22.27;38.09;101194.03;4986842;28;20066;-51
2022/05/28 09:17:43;;;;;;;3.08;1.42;;;;;;;22.19;36.32;101196.94;4994732;28;20474;-49
2022/05/28 09:20:16;;;;;;;3.03;1.95;;;;;;;21.81;37.36;101198.13;4986712;28;20054;-51
2022/05/28 09:22:43;;;;;;;2.55;1.63;;;;;;;21.60;37.48;101204.00;4983784;28;20047;-50
2022/05/28 09:25:11;;;;;;;2.15;1.58;;;;;;;21.51;38.25;101190.22;4991579;28;20058;-51
2022/05/28 09:45:03;;;;;;;1.08;0.50;;;;;;;20.63;38.15;101191.78;5046816;27;20749;-47
2022/05/28 09:47:53;;;;;;;2.15;1.48;;;;;;;20.50;38.72;101190.41;5037173;28;20470;-48
2022/05/28 09:56:16;;;;;;;2.08;1.08;;;;;;;20.78;38.15;101179.97;5019673;28;20548;-47
2022/05/28 09:58:43;;;;;;;1.73;0.82;;;;;;;21.23;37.98;101175.25;5024322;28;20460;-52
2022/05/28 10:01:17;;;;;;;2.30;0.57;;;;;;;21.53;37.82;101172.59;5023313;28;20049;-47
2022/05/28 10:06:33;;;;;;;2.60;0.77;;;;;;;22.01;37.58;101178.16;5018112;28;20057;-46
2022/05/28 10:09:12;;;;;;;1.92;0.70;;;;;;;21.90;36.58;101177.63;5004925;28;20054;-47
2022/05/28 10:11:50;;;;;;;1.25;0.52;;;;;;;21.68;36.90;101167.72;5022094;28;20041;-48
2022/05/28 10:14:17;;;;;;;2.20;0.57;;;;;;;21.53;37.29;101167.31;5022262;28;20052;-47
2022/05/28 10:16:47;;;;;;;1.30;0.65;;;;;;;21.36;37.74;101166.97;5023542;28;20054;-47
2022/05/28 10:19:23;;;;;;;1.83;0.35;;;;;;;21.45;37.54;101166.69;5024786;28;20787;-50
2022/05/28 10:21:52;;;;;;;1.83;0.30;;;;;;;21.26;37.43;101169.88;5024081;28;20053;-52
2022/05/28 10:24:22;;;;;;;1.05;0.75;;;;;;;21.02;37.68;101172.34;5038876;28;20464;-50
2022/05/28 10:26:53;;;;;;;1.05;0.55;;;;;;;20.97;37.96;101171.59;5025234;28;20057;-50
2022/05/28 10:32:01;;;;;;;1.30;0.63;;;;;;;20.83;37.25;101163.19;5038672;28;20416;-48
2022/05/28 10:34:45;;;;;;;1.05;0.30;;;;;;;20.67;37.69;101167.09;5031251;28;20540;-53
2022/05/28 10:37:18;;;;;;;5.05;1.95;;;;;;;20.51;36.71;101153.53;5023243;28;20049;-49
2022/05/28 10:39:47;;;;;;;1.80;0.73;;;;;;;20.50;37.73;101159.66;5020918;28;20096;-49
2022/05/28 10:42:15;;;;;;;1.20;0.60;;;;;;;20.52;38.07;101149.97;5019185;28;20046;-48
2022/05/28 10:44:43;;;;;;;1.30;0.50;;;;;;;20.56;37.67;101153.38;5035286;28;20053;-51
2022/05/28 10:55:34;;;;;;;0.80;0.47;;;;;;;20.62;37.50;101149.72;5038476;27;20398;-47
2022/05/28 10:58:30;;;;;;;1.10;0.28;;;;;;;20.58;37.26;101140.19;5024410;28;20061;-51
2022/05/28 11:09:26;;;;;;;2.33;0.75;;;;;;;20.35;37.99;101134.63;5063612;28;20869;-47
2022/05/28 11:23:18;;;;;;;1.65;0.50;;;;;;;21.37;36.87;101130.03;5029679;27;20914;-47
2022/05/28 11:34:33;;;;;;;1.73;1.52;;;;;;;22.36;32.68;101122.47;5039941;27;20747;-48
2022/05/28 11:40:00;;;;;;;0.90;0.28;;;;;;;21.92;34.32;101125.72;5049903;27;20406;-50
2022/05/28 11:45:08;;;;;;;1.70;0.52;;;;;;;22.02;36.12;101121.84;5061417;28;20420;-49
2022/05/28 11:47:46;;;;;;;1.92;0.77;;;;;;;22.03;34.96;101123.59;5026808;28;20544;-51
2022/05/28 11:53:52;;;;;;;2.28;0.60;;;;;;;21.61;35.40;101121.41;5041947;28;20068;-49
2022/05/28 11:56:24;;;;;;;1.70;0.68;;;;;;;21.63;35.34;101122.22;5042882;28;20045;-49
2022/05/28 11:58:54;;;;;;;1.42;0.40;;;;;;;21.42;34.85;101122.00;5044459;28;20049;-48
2022/05/28 12:01:27;;;;;;;2.17;0.57;;;;;;;21.24;34.73;101112.88;5043429;28;20099;-49
2022/05/28 12:03:54;;;;;;;2.10;0.60;;;;;;;21.14;35.58;101113.16;5044020;28;20045;-46
2022/05/28 12:11:47;;;;;;;2.17;1.38;;;;;;;20.84;34.79;101120.16;5028527;28;20386;-50
2022/05/28 12:14:33;;;;;;;2.20;1.92;;;;;;;20.93;35.79;101112.91;5024521;28;20054;-50
2022/05/28 12:19:58;;;;;;;1.80;1.20;;;;;;;21.79;32.98;101107.63;5035076;28;20397;-50
2022/05/28 12:22:32;;;;;;;2.67;0.68;;;;;;;21.48;33.72;101113.03;5025735;28;20055;-48
2022/05/28 12:30:48;;;;;;;0.73;0.40;;;;;;;20.93;34.58;101109.38;5048960;28;20399;-49
2022/05/28 12:36:23;;;;;;;9.18;2.10;;;;;;;20.50;35.28;101101.78;5044601;28;20415;-48
2022/05/28 12:42:01;;;;;;;3.75;0.60;;;;;;;20.68;35.81;101099.53;5022171;28;20409;-50
2022/05/28 12:44:27;;;;;;;1.63;0.40;;;;;;;20.85;34.78;101085.03;5018182;28;20107;-49
2022/05/28 12:46:59;;;;;;;1.52;0.70;;;;;;;20.92;34.54;101091.88;5019817;28;20104;-51
2022/05/28 12:49:33;;;;;;;1.67;0.52;;;;;;;21.09;34.89;101087.84;5019186;28;20052;-48
2022/05/28 12:54:43;;;;;;;1.30;0.55;;;;;;;21.14;34.70;101081.53;5035713;28;20450;-48
2022/05/28 12:57:30;;;;;;;1.73;0.55;;;;;;;21.05;34.90;101080.03;5013108;28;20058;-49
2022/05/28 13:00:21;;;;;;;1.33;0.43;;;;;;;21.04;34.64;101072.22;5012574;28;20100;-49
2022/05/28 13:02:50;;;;;;;1.70;0.50;;;;;;;21.17;34.76;101080.56;5004292;28;20049;-48
2022/05/28 13:08:07;;;;;;;1.23;0.90;;;;;;;21.15;34.45;101071.88;5031711;28;20397;-47
2022/05/28 13:10:34;;;;;;;2.00;1.50;;;;;;;21.01;34.59;101069.66;5025293;28;20620;-49
2022/05/28 13:27:48;;;;;;;2.22;0.50;;;;;;;20.51;35.23;101061.41;5062514;27;20406;-46
2022/05/28 13:30:28;;;;;;;1.60;0.95;;;;;;;20.46;35.16;101058.03;5008858;28;20053;-48
2022/05/28 13:33:03;;;;;;;1.90;0.40;;;;;;;20.43;34.99;101052.84;5037351;28;20053;-46
2022/05/28 13:35:52;;;;;;;1.40;0.73;;;;;;;20.34;34.66;101053.13;5018681;28;20053;-48
2022/05/28 13:38:24;;;;;;;1.67;0.85;;;;;;;20.34;34.95;101058.38;5013879;28;20062;-50
2022/05/28 13:40:55;;;;;;;1.67;0.52;;;;;;;20.34;35.24;101054.00;5013850;28;20070;-50
2022/05/28 13:43:27;;;;;;;1.20;0.40;;;;;;;20.38;35.29;101045.09;5009717;28;20561;-46
2022/05/28 13:46:03;;;;;;;2.13;0.98;;;;;;;20.34;34.82;101045.22;5004772;28;20421;-47
2022/05/28 13:48:30;;;;;;;0.90;0.40;;;;;;;20.35;35.58;101050.44;5013068;28;20054;-47
2022/05/28 13:51:01;;;;;;;1.23;0.55;;;;;;;20.50;35.72;101049.13;5008390;28;20088;-47
2022/05/28 13:53:30;;;;;;;2.05;0.68;;;;;;;20.56;35.31;101042.84;5007562;28;20069;-47
2022/05/28 13:56:00;;;;;;;1.50;0.80;;;;;;;20.70;35.78;101034.53;5010617;28;20055;-48
2022/05/28 13:58:33;;;;;;;1.85;0.93;;;;;;;20.70;33.92;101034.53;5036505;28;20045;-46